• Join FlightAware (Why Join?)
  • Login
  • US Flag 
Rudolph Flight #1: Arrived! 
02:20PM EST


 

Airport Tracker/Info


-or-


 

Live Flight TrackerFlight Track Log ✈ DLH1927 ✈ 11-May-2012 ✈ LIRN / NAP - EDDM / MUC

Flight Track Log - Related Links

Times and Time Zones

All times are in EDT time to prevent confusion due to time zone crossing. See the DLH1927 flight status page for this flight to view local times or setup timezone preferences in your user account.

Time Position Orientation Groundspeed Altitude Reporting Facility
EDT Latitude Longitude Course Direction KTS MPH feet Rate Location/Type
06:18AM 41.0137 14.2531 347° North  Level Estimated
06:19AM 41.0969 14.2284 347° North  Level Estimated
06:20AM 41.1802 14.2037 347° North  Level Estimated
06:21AM 41.2634 14.1789 347° North  Level Estimated
06:22AM 41.3466 14.1541 347° North  Level Estimated
06:23AM 41.4299 14.1292 347° North  Level Estimated
06:24AM 41.5131 14.1042 347° North  Level Estimated
06:25AM 41.5963 14.0792 347° North  Level Estimated
06:26AM 41.6795 14.0541 347° North  Level Estimated
06:27AM 41.7627 14.0289 347° North  Level Estimated
06:28AM 41.8459 14.0037 347° North  Level Estimated
06:29AM 41.9291 13.9784 347° North  Level Estimated
06:30AM 42.0123 13.9530 347° North  Level Estimated
06:31AM 42.0955 13.9276 347° North  Level Estimated
06:32AM 42.1787 13.9021 347° North  Level Estimated
06:33AM 42.2619 13.8765 347° North  Level Estimated
06:34AM 42.3450 13.8509 347° North  Level Estimated
06:35AM 42.4386 13.8220 347° North  Level Estimated
06:36AM 42.5321 13.7930 347° North  Level Estimated
06:37AM 42.6257 13.7639 347° North  Level Estimated
06:38AM 42.7192 13.7347 347° North  Level Estimated
06:39AM 42.8127 13.7054 347° North  Level Estimated
06:40AM 42.9063 13.6761 347° North  Level Estimated
06:41AM 42.9998 13.6467 347° North  Level Estimated
06:42AM 43.0933 13.6171 347° North  Level Estimated
06:43AM 43.1868 13.5875 347° North  Level Estimated
06:44AM 43.2803 13.5578 347° North  Level Estimated
06:45AM 43.3737 13.5280 347° North  Level Estimated
06:46AM 43.4672 13.4981 347° North  Level Estimated
06:47AM 43.5607 13.4681 347° North  Level Estimated
06:48AM 43.6541 13.4380 347° North  Level Estimated
06:49AM 43.7476 13.4078 347° North  Level Estimated
06:50AM 43.8410 13.3776 347° North  Level Estimated
06:51AM 43.9345 13.3472 347° North  Level Estimated
06:52AM 44.0279 13.3167 347° North  Level Estimated
06:53AM 44.1213 13.2862 347° North  Level Estimated
06:54AM 44.2147 13.2555 347° North  Level Estimated
06:55AM 44.3081 13.2248 347° North  Level Estimated
06:56AM 44.4015 13.1939 347° North  Level Estimated
06:57AM 44.4949 13.1630 347° North  Level Estimated
06:58AM 44.5883 13.1319 347° North  Level Estimated
06:59AM 44.6816 13.1008 347° North  Level Estimated
07:00AM 44.7750 13.0695 347° North  Level Estimated
07:01AM 44.8684 13.0382 347° North  Level Estimated
07:02AM 44.9617 13.0067 347° North  Level Estimated
07:03AM 45.0550 12.9752 347° North  Level Estimated
07:04AM 45.1484 12.9435 347° North  Level Estimated
07:05AM 45.2417 12.9117 346° North  Level Estimated
07:06AM 45.3350 12.8799 346° North  Level Estimated
07:07AM 45.4283 12.8479 346° North  Level Estimated
07:08AM 45.5216 12.8158 346° North  Level Estimated
07:09AM 45.6149 12.7836 346° North  Level Estimated
07:10AM 45.7081 12.7514 346° North  Level Estimated
07:11AM 45.8014 12.7190 346° North  Level Estimated
07:12AM 45.8946 12.6864 346° North  Level Estimated
07:13AM 45.9879 12.6538 346° North  Level Estimated
07:14AM 46.0811 12.6211 346° North  Level Estimated
07:15AM 46.1743 12.5883 346° North  Level Estimated
07:16AM 46.2676 12.5553 346° North  Level Estimated
07:17AM 46.3608 12.5222 346° North  Level Estimated
07:18AM 46.4540 12.4891 346° North  Level Estimated
07:19AM 46.5472 12.4558 346° North  Level Estimated
07:20AM 46.6403 12.4224 346° North  Level Estimated
07:21AM 46.7335 12.3889 346° North  Level Estimated
07:22AM 46.8267 12.3552 346° North  Level Estimated
07:23AM 46.9198 12.3215 346° North  Level Estimated
07:24AM 47.0130 12.2876 346° North  Level Estimated
07:25AM 47.1061 12.2536 346° North  Level Estimated
07:26AM 47.1992 12.2195 346° North  Level Estimated
07:27AM 47.2923 12.1853 346° North  Level Estimated
07:28AM 47.3854 12.1509 346° North  Level Estimated
07:29AM 47.4785 12.1165 346° North  Level Estimated
07:30AM 47.5716 12.0819 346° North  Level Estimated
07:31AM 47.6647 12.0472 346° North  Level Estimated
07:32AM 47.7577 12.0123 346° North  Level Estimated
07:33AM 47.8508 11.9774 346° North  Level Estimated
07:34AM 47.9438 11.9423 346° North  Level Estimated
07:35AM 48.0368 11.9071 346° North  Level Estimated
07:36AM 48.1298 11.8717 346° North  Level Estimated
07:37AM 48.2228 11.8363 346° North  Level Estimated
07:38AM 48.3158 11.8006 346° North  Level Estimated
07:39AM 48.4088 11.7649 166° South  Level Estimated
07:40AM 48.3158 11.8006 346° North  Level Estimated
07:41AM 48.4088 11.7649 166° South  Level Estimated
07:42AM 48.3158 11.8006 346° North  Level Estimated
07:43AM 48.4088 11.7649 166° South  Level Estimated
07:44AM 48.3158 11.8006 346° North  Level Estimated
07:45AM 48.4088 11.7649 166° South  Level Estimated
07:46AM 48.3158 11.8006 346° North  Level Estimated
07:47AM 48.4088 11.7649 166° South  Level Estimated
07:48AM 48.3158 11.8006 166° South  Level Estimated